createdAt,value
2023-11-18T00:02:02.466Z,2.00
2023-11-18T00:04:29.276Z,2.00
2023-11-18T00:06:58.369Z,1.90
2023-11-18T00:09:25.888Z,1.90
2023-11-18T00:11:52.718Z,1.90
2023-11-18T00:14:22.146Z,1.80
2023-11-18T00:16:49.055Z,1.80
2023-11-18T00:19:15.843Z,1.80
2023-11-18T00:21:43.689Z,1.70
2023-11-18T00:24:10.573Z,1.70
2023-11-18T00:26:37.392Z,1.50
2023-11-18T00:29:04.514Z,1.50
2023-11-18T00:31:31.439Z,1.50
2023-11-18T00:33:58.310Z,1.40
2023-11-18T00:36:25.066Z,1.30
2023-11-18T00:38:52.264Z,1.40
2023-11-18T00:41:19.029Z,1.50
2023-11-18T00:43:45.884Z,1.50
2023-11-18T00:46:13.227Z,1.50
2023-11-18T00:48:40.569Z,1.40
2023-11-18T00:51:08.563Z,1.40
2023-11-18T00:53:35.373Z,1.30
2023-11-18T00:56:02.882Z,1.30
2023-11-18T00:58:30.210Z,1.20
2023-11-18T01:00:57.109Z,1.20
2023-11-18T01:03:24.570Z,1.10
2023-11-18T01:05:51.666Z,1.10
2023-11-18T01:08:19.030Z,1.00
2023-11-18T01:10:45.844Z,0.90
2023-11-18T01:13:12.634Z,0.80
2023-11-18T01:15:39.447Z,0.90
2023-11-18T01:18:07.551Z,0.90
2023-11-18T01:20:35.340Z,0.90
2023-11-18T01:23:02.171Z,0.90
2023-11-18T01:25:29.017Z,0.90
2023-11-18T01:27:56.245Z,0.90
2023-11-18T01:30:25.000Z,0.80
2023-11-18T01:32:52.034Z,0.80
2023-11-18T01:35:19.061Z,0.90
2023-11-18T01:37:46.465Z,0.90
2023-11-18T01:40:14.230Z,0.90
2023-11-18T01:42:44.363Z,0.90
2023-11-18T01:45:12.922Z,0.90
2023-11-18T01:47:41.559Z,0.90
2023-11-18T01:50:13.643Z,0.90
2023-11-18T01:52:44.113Z,0.90
2023-11-18T01:55:14.313Z,0.70
2023-11-18T01:57:44.736Z,0.60
2023-11-18T02:00:13.178Z,0.50
2023-11-18T02:02:41.009Z,0.40
2023-11-18T02:05:08.777Z,0.30
2023-11-18T02:07:39.707Z,0.20
2023-11-18T02:10:10.381Z,0.20
2023-11-18T02:13:07.062Z,0.30
2023-11-18T02:15:36.630Z,0.30
2023-11-18T02:18:06.872Z,0.20
2023-11-18T02:20:35.559Z,0.30
2023-11-18T02:23:03.613Z,0.20
2023-11-18T02:25:34.025Z,0.20
2023-11-18T02:28:01.131Z,0.10
2023-11-18T02:30:31.968Z,0.10
2023-11-18T02:32:58.813Z,-0.10
2023-11-18T02:35:39.363Z,-0.30
2023-11-18T02:38:08.808Z,-0.50
2023-11-18T02:40:39.175Z,-0.70
2023-11-18T02:43:06.816Z,-0.70
2023-11-18T02:45:37.141Z,-0.60
2023-11-18T02:48:07.468Z,-0.40
2023-11-18T02:50:36.561Z,-0.20
2023-11-18T02:53:03.989Z,-0.20
2023-11-18T02:55:31.017Z,-0.20
2023-11-18T02:57:58.337Z,-0.20
2023-11-18T03:00:25.279Z,-0.20
2023-11-18T03:02:53.374Z,-0.10
2023-11-18T03:05:21.659Z,-0.10
2023-11-18T03:07:51.456Z,-0.10
2023-11-18T03:10:23.492Z,-0.30
2023-11-18T03:12:54.790Z,-0.50
2023-11-18T03:15:22.904Z,-0.60
2023-11-18T03:17:51.165Z,-0.70
2023-11-18T03:20:19.399Z,-0.70
2023-11-18T03:22:47.242Z,-0.70
2023-11-18T03:25:14.947Z,-0.70
2023-11-18T03:27:41.891Z,-0.70
2023-11-18T03:30:09.999Z,-0.80
2023-11-18T03:32:41.104Z,-0.90
2023-11-18T03:35:10.426Z,-1.00
2023-11-18T03:37:42.742Z,-0.90
2023-11-18T03:40:14.644Z,-0.90
2023-11-18T03:42:42.992Z,-1.00
2023-11-18T03:45:10.984Z,-1.10
2023-11-18T03:47:38.041Z,-1.20
2023-11-18T03:50:06.537Z,-1.30
2023-11-18T03:52:33.424Z,-1.20
2023-11-18T03:55:00.275Z,-1.30
2023-11-18T03:57:27.252Z,-1.10
2023-11-18T03:59:55.002Z,-0.70
2023-11-18T04:02:21.828Z,-0.50
2023-11-18T04:04:50.218Z,-0.40
2023-11-18T04:07:17.077Z,-0.30
2023-11-18T04:09:44.631Z,-0.40
2023-11-18T04:12:11.959Z,-0.50
2023-11-18T04:14:39.386Z,-0.60
2023-11-18T04:17:07.306Z,-0.70
2023-11-18T04:19:36.190Z,-0.70
2023-11-18T04:22:03.064Z,-0.80
2023-11-18T04:24:30.299Z,-0.90
2023-11-18T04:26:57.151Z,-1.00
2023-11-18T04:29:24.378Z,-1.10
2023-11-18T04:31:51.678Z,-1.20
2023-11-18T04:34:18.451Z,-1.10
2023-11-18T04:36:45.873Z,-0.90
2023-11-18T04:39:13.193Z,-0.70
2023-11-18T04:41:40.985Z,-0.60
2023-11-18T04:44:08.572Z,-0.60
2023-11-18T04:46:37.565Z,-0.60
2023-11-18T04:49:04.423Z,-0.60
2023-11-18T04:51:31.318Z,-0.60
2023-11-18T04:53:58.084Z,-0.50
2023-11-18T04:56:24.839Z,-0.50
2023-11-18T04:58:51.620Z,-0.60
2023-11-18T05:01:19.521Z,-0.70
2023-11-18T05:03:46.525Z,-0.60
2023-11-18T05:06:14.214Z,-0.50
2023-11-18T05:08:41.050Z,-0.40
2023-11-18T05:11:07.919Z,-0.50
2023-11-18T05:13:35.131Z,-0.50
2023-11-18T05:16:02.398Z,-0.60
2023-11-18T05:18:34.526Z,-0.80
2023-11-18T05:21:01.744Z,-1.00
2023-11-18T05:23:30.549Z,-1.00
2023-11-18T05:25:57.623Z,-1.00
2023-11-18T05:28:25.534Z,-1.10
2023-11-18T05:30:53.417Z,-1.10
2023-11-18T05:33:21.388Z,-1.00
2023-11-18T05:35:51.093Z,-0.90
2023-11-18T05:38:20.063Z,-0.90
2023-11-18T05:40:57.613Z,-1.00
2023-11-18T05:43:31.088Z,-0.90
2023-11-18T05:46:21.387Z,-0.80
2023-11-18T05:48:49.811Z,-0.80
2023-11-18T05:51:21.743Z,-0.80
2023-11-18T05:53:48.612Z,-0.80
2023-11-18T05:56:19.488Z,-0.80
2023-11-18T05:58:47.031Z,-0.70
2023-11-18T06:01:14.494Z,-0.70
2023-11-18T06:03:43.421Z,-0.70
2023-11-18T06:06:12.404Z,-0.60
2023-11-18T06:08:42.278Z,-0.60
2023-11-18T06:11:16.619Z,-0.70
2023-11-18T06:13:50.711Z,-0.80
2023-11-18T06:16:21.844Z,-0.90
2023-11-18T06:18:50.948Z,-0.90
2023-11-18T06:21:19.797Z,-1.00
2023-11-18T06:23:48.419Z,-0.90
2023-11-18T06:26:16.441Z,-0.70
2023-11-18T06:28:45.333Z,-0.70
2023-11-18T06:31:13.077Z,-0.60
2023-11-18T06:33:44.090Z,-0.50
2023-11-18T06:36:20.034Z,-0.50
2023-11-18T06:38:50.107Z,-0.50
2023-11-18T06:41:17.965Z,-0.50
2023-11-18T06:43:55.036Z,-0.50
2023-11-18T06:46:35.112Z,-0.50
2023-11-18T06:49:08.077Z,-0.50
2023-11-18T06:51:37.428Z,-0.40
2023-11-18T06:54:14.680Z,-0.30
2023-11-18T06:56:45.912Z,-0.20
2023-11-18T06:59:15.863Z,-0.20
2023-11-18T07:01:45.039Z,0.60
2023-11-18T07:04:12.603Z,1.10
2023-11-18T07:06:39.439Z,1.50
2023-11-18T07:09:33.921Z,1.70
2023-11-18T07:12:00.686Z,1.40
2023-11-18T07:14:28.214Z,1.10
2023-11-18T07:16:55.360Z,0.90
2023-11-18T07:19:22.713Z,0.90
2023-11-18T07:21:50.575Z,0.90
2023-11-18T07:24:18.383Z,0.80
2023-11-18T07:26:46.684Z,0.70
2023-11-18T07:29:14.075Z,0.70
2023-11-18T07:31:41.017Z,0.70
2023-11-18T07:34:08.013Z,0.60
2023-11-18T07:36:35.220Z,0.60
2023-11-18T07:39:03.747Z,0.60
2023-11-18T07:41:33.793Z,0.60
2023-11-18T07:44:02.304Z,0.70
2023-11-18T07:46:32.155Z,0.80
2023-11-18T07:48:59.833Z,0.80
2023-11-18T07:51:26.612Z,0.80
2023-11-18T07:53:56.360Z,0.90
2023-11-18T07:56:24.351Z,1.00
2023-11-18T07:58:53.005Z,1.10
2023-11-18T08:01:22.929Z,1.20
2023-11-18T08:03:52.075Z,1.20
2023-11-18T08:06:19.160Z,1.20
2023-11-18T08:08:46.842Z,1.10
2023-11-18T08:11:14.963Z,1.10
2023-11-18T08:13:42.405Z,1.10
2023-11-18T08:16:10.281Z,1.20
2023-11-18T08:18:37.908Z,1.20
2023-11-18T08:21:08.078Z,1.20
2023-11-18T08:23:35.193Z,1.20
2023-11-18T08:26:02.016Z,1.30
2023-11-18T08:28:28.849Z,1.40
2023-11-18T08:30:55.708Z,1.60
2023-11-18T08:33:25.320Z,1.60
2023-11-18T08:35:52.227Z,1.80
2023-11-18T08:38:19.177Z,1.70
2023-11-18T08:40:46.904Z,1.80
2023-11-18T08:43:14.365Z,1.80
2023-11-18T08:45:42.515Z,1.90
2023-11-18T08:48:10.097Z,2.00
2023-11-18T08:50:39.797Z,2.00
2023-11-18T08:53:11.355Z,2.00
2023-11-18T08:55:43.883Z,2.00
2023-11-18T08:58:35.133Z,2.00
2023-11-18T09:01:14.936Z,2.00
2023-11-18T09:03:53.698Z,2.40
2023-11-18T09:06:30.182Z,2.60
2023-11-18T09:08:58.545Z,2.70
2023-11-18T09:11:30.461Z,3.10
2023-11-18T09:13:58.643Z,3.00
2023-11-18T09:16:30.590Z,3.20
2023-11-18T09:19:00.685Z,3.20
2023-11-18T09:21:30.781Z,3.20
2023-11-18T09:23:58.126Z,3.50
2023-11-18T09:26:26.960Z,3.50
2023-11-18T09:28:54.132Z,3.70
2023-11-18T09:31:22.781Z,3.70
2023-11-18T09:33:58.505Z,3.70
2023-11-18T09:36:29.749Z,3.90
2023-11-18T09:38:56.613Z,3.80
2023-11-18T09:41:27.990Z,3.90
2023-11-18T09:43:58.110Z,4.20
2023-11-18T09:46:30.721Z,4.10
2023-11-18T09:49:26.754Z,4.20
2023-11-18T09:51:58.685Z,4.00
2023-11-18T09:54:53.497Z,4.00
2023-11-18T09:57:34.595Z,3.90
2023-11-18T10:00:23.145Z,4.00
2023-11-18T10:02:53.956Z,4.10
2023-11-18T10:05:22.429Z,4.00
2023-11-18T10:07:50.100Z,4.00
2023-11-18T10:10:17.585Z,4.00
2023-11-18T10:12:46.053Z,4.00
2023-11-18T10:15:15.462Z,4.00
2023-11-18T10:17:56.317Z,4.10
2023-11-18T10:20:26.972Z,4.00
2023-11-18T10:23:13.755Z,4.10
2023-11-18T10:25:54.380Z,4.10
2023-11-18T10:28:50.967Z,4.10
2023-11-18T10:31:20.135Z,4.00
2023-11-18T10:33:47.549Z,3.80
2023-11-18T10:36:24.982Z,3.90
2023-11-18T10:38:56.569Z,3.90
2023-11-18T10:41:24.301Z,3.90
2023-11-18T10:44:14.945Z,4.00
2023-11-18T10:46:55.136Z,4.00
2023-11-18T10:49:22.472Z,4.00
2023-11-18T10:51:51.646Z,4.10
2023-11-18T10:54:20.278Z,4.10
2023-11-18T10:56:51.136Z,4.10
2023-11-18T10:59:19.406Z,4.20
2023-11-18T11:01:50.093Z,4.40
2023-11-18T11:04:23.342Z,4.20
2023-11-18T11:06:54.753Z,4.30
2023-11-18T11:09:28.251Z,4.50
2023-11-18T11:12:00.343Z,4.50
2023-11-18T11:14:36.646Z,4.40
2023-11-18T11:17:18.819Z,4.50
2023-11-18T11:19:57.069Z,4.40
2023-11-18T11:22:31.172Z,4.50
2023-11-18T11:25:04.963Z,4.50
2023-11-18T11:27:40.882Z,4.60
2023-11-18T11:30:21.968Z,4.60
2023-11-18T11:33:00.699Z,4.50
2023-11-18T11:35:40.045Z,4.50
2023-11-18T11:38:11.206Z,4.50
2023-11-18T11:40:39.063Z,4.50
2023-11-18T11:43:10.881Z,4.50
2023-11-18T11:45:40.252Z,4.50
2023-11-18T11:48:15.980Z,4.60
2023-11-18T11:51:04.995Z,4.50
2023-11-18T11:53:37.252Z,4.60
2023-11-18T11:56:15.235Z,4.60
2023-11-18T11:58:46.116Z,4.60
2023-11-18T12:01:39.614Z,4.60
2023-11-18T12:04:21.803Z,4.60
2023-11-18T12:06:49.313Z,4.70
2023-11-18T12:09:20.899Z,4.60
2023-11-18T12:11:52.035Z,4.60
2023-11-18T12:14:25.248Z,4.60
2023-11-18T12:17:11.557Z,4.60
2023-11-18T12:19:49.678Z,4.50
2023-11-18T12:22:25.476Z,4.50
2023-11-18T12:24:59.046Z,4.50
2023-11-18T12:27:53.609Z,4.40
2023-11-18T12:30:26.889Z,4.40
2023-11-18T12:33:10.201Z,4.40
2023-11-18T12:35:52.802Z,4.40
2023-11-18T12:38:46.717Z,4.40
2023-11-18T12:41:38.994Z,4.40
2023-11-18T12:44:36.762Z,4.40
2023-11-18T12:47:20.203Z,4.40
2023-11-18T12:49:56.547Z,4.30
2023-11-18T12:52:24.597Z,4.40
2023-11-18T12:54:52.215Z,4.30
2023-11-18T12:57:24.175Z,4.40
2023-11-18T12:59:51.356Z,4.40
2023-11-18T13:02:21.940Z,4.50
2023-11-18T13:04:50.581Z,4.50
2023-11-18T13:07:18.665Z,4.50
2023-11-18T13:09:47.057Z,4.50
2023-11-18T13:12:16.376Z,4.50
2023-11-18T13:14:44.054Z,4.50
2023-11-18T13:17:13.149Z,4.50
2023-11-18T13:19:44.023Z,4.50
2023-11-18T13:22:12.678Z,4.60
2023-11-18T13:24:47.114Z,4.50
2023-11-18T13:27:17.459Z,4.50
2023-11-18T13:29:52.317Z,4.50
2023-11-18T13:32:24.246Z,4.50
2023-11-18T13:34:52.792Z,4.40
2023-11-18T13:37:23.572Z,4.40
2023-11-18T13:39:57.487Z,4.40
2023-11-18T13:42:32.006Z,4.40
2023-11-18T13:45:09.478Z,4.40
2023-11-18T13:47:38.039Z,4.40
2023-11-18T13:50:09.757Z,4.50
2023-11-18T13:52:39.656Z,4.50
2023-11-18T13:55:08.288Z,4.50
2023-11-18T13:57:35.937Z,4.40
2023-11-18T14:00:03.230Z,4.40
2023-11-18T14:02:33.101Z,4.40
2023-11-18T14:05:01.244Z,4.40
2023-11-18T14:07:28.795Z,4.40
2023-11-18T14:09:57.906Z,4.30
2023-11-18T14:12:28.674Z,4.30
2023-11-18T14:14:55.745Z,4.30
2023-11-18T14:17:22.775Z,4.30
2023-11-18T14:19:51.094Z,4.20
2023-11-18T14:22:18.160Z,4.20
2023-11-18T14:24:44.907Z,4.10
2023-11-18T14:27:12.091Z,4.10
2023-11-18T14:29:39.238Z,4.10
2023-11-18T14:32:07.455Z,4.10
2023-11-18T14:34:34.562Z,4.10
2023-11-18T14:37:02.329Z,4.00
2023-11-18T14:39:29.136Z,4.00
2023-11-18T14:41:56.370Z,4.10
2023-11-18T14:44:23.287Z,4.10
2023-11-18T14:46:50.194Z,4.10
2023-11-18T14:49:17.902Z,4.10
2023-11-18T14:51:44.776Z,4.10
2023-11-18T14:54:11.679Z,4.00
2023-11-18T14:56:38.979Z,4.10
2023-11-18T14:59:09.168Z,4.00
2023-11-18T15:01:36.306Z,4.00
2023-11-18T15:04:06.763Z,4.00
2023-11-18T15:06:33.839Z,4.00
2023-11-18T15:09:00.798Z,3.90
2023-11-18T15:11:27.804Z,3.90
2023-11-18T15:13:55.081Z,3.90
2023-11-18T15:16:22.316Z,3.90
2023-11-18T15:18:51.542Z,3.90
2023-11-18T15:21:19.517Z,3.90
2023-11-18T15:23:46.682Z,3.90
2023-11-18T15:26:13.503Z,3.90
2023-11-18T15:28:40.276Z,3.90
2023-11-18T15:31:07.148Z,3.90
2023-11-18T15:33:34.693Z,3.80
2023-11-18T15:36:02.266Z,3.80
2023-11-18T15:38:29.105Z,3.80
2023-11-18T15:40:56.108Z,3.80
2023-11-18T15:43:23.340Z,3.80
2023-11-18T15:45:50.261Z,3.80
2023-11-18T15:48:17.349Z,3.80
2023-11-18T15:50:44.420Z,3.80
2023-11-18T15:53:15.338Z,3.80
2023-11-18T15:55:45.243Z,3.80
2023-11-18T15:58:12.378Z,3.80
2023-11-18T16:00:39.434Z,3.80
2023-11-18T16:03:10.253Z,3.80
2023-11-18T16:05:37.738Z,3.70
2023-11-18T16:08:08.249Z,3.80
2023-11-18T16:10:35.631Z,3.80
2023-11-18T16:13:03.489Z,3.80
2023-11-18T16:15:31.563Z,3.80
2023-11-18T16:17:59.822Z,3.80
2023-11-18T16:20:28.895Z,3.80
2023-11-18T16:22:58.266Z,3.80
2023-11-18T16:25:29.115Z,3.80
2023-11-18T16:27:59.471Z,3.80
2023-11-18T16:30:30.678Z,3.80
2023-11-18T16:32:59.074Z,3.80
2023-11-18T16:35:27.111Z,3.80
2023-11-18T16:37:54.398Z,3.80
2023-11-18T16:40:22.241Z,3.80
2023-11-18T16:42:56.384Z,3.80
2023-11-18T16:45:25.056Z,3.80
2023-11-18T16:47:53.562Z,3.80
2023-11-18T16:50:22.045Z,3.90
2023-11-18T16:52:49.140Z,3.80
2023-11-18T16:55:16.363Z,3.80
2023-11-18T16:57:43.334Z,3.90
2023-11-18T17:00:20.689Z,3.90
2023-11-18T17:02:51.919Z,3.90
2023-11-18T17:05:18.918Z,3.90
2023-11-18T17:07:46.680Z,3.90
2023-11-18T17:10:13.716Z,3.90
2023-11-18T17:12:46.108Z,3.90
2023-11-18T17:15:16.696Z,3.90
2023-11-18T17:17:45.708Z,3.90
2023-11-18T17:20:16.465Z,3.90
2023-11-18T17:22:44.127Z,3.90
2023-11-18T17:25:16.434Z,4.00
2023-11-18T17:27:44.779Z,4.00
2023-11-18T17:30:14.199Z,4.00
2023-11-18T17:32:42.056Z,4.00
2023-11-18T17:35:16.899Z,4.00
2023-11-18T17:37:45.380Z,4.00
2023-11-18T17:40:13.478Z,4.00
2023-11-18T17:42:41.417Z,4.10
2023-11-18T17:45:09.540Z,4.10
2023-11-18T17:47:38.616Z,4.10
2023-11-18T17:50:10.176Z,4.10
2023-11-18T17:52:37.685Z,4.10
2023-11-18T17:55:05.686Z,4.00
2023-11-18T17:57:32.901Z,4.00
2023-11-18T17:59:59.873Z,4.10
2023-11-18T18:02:27.183Z,4.10
2023-11-18T18:04:54.082Z,4.20
2023-11-18T18:07:20.871Z,4.10
2023-11-18T18:09:47.964Z,4.20
2023-11-18T18:12:14.786Z,4.20
2023-11-18T18:14:41.632Z,4.10
2023-11-18T18:17:08.535Z,4.10
2023-11-18T18:19:35.363Z,4.10
2023-11-18T18:22:02.197Z,4.10
2023-11-18T18:24:29.065Z,4.20
2023-11-18T18:26:55.865Z,4.20
2023-11-18T18:29:22.720Z,4.20
2023-11-18T18:31:49.869Z,4.20
2023-11-18T18:34:17.805Z,4.20
2023-11-18T18:36:44.587Z,4.30
2023-11-18T18:39:13.177Z,4.30
2023-11-18T18:41:39.969Z,4.30
2023-11-18T18:44:07.341Z,4.30
2023-11-18T18:46:34.084Z,4.30
2023-11-18T18:49:00.826Z,4.30
2023-11-18T18:51:27.596Z,4.30
2023-11-18T18:53:54.755Z,4.30
2023-11-18T18:56:22.054Z,4.40
2023-11-18T18:58:49.469Z,4.30
2023-11-18T19:01:16.533Z,4.40
2023-11-18T19:03:43.393Z,4.40
2023-11-18T19:06:12.862Z,4.40
2023-11-18T19:08:40.813Z,4.40
2023-11-18T19:11:07.731Z,4.40
2023-11-18T19:13:34.738Z,4.40
2023-11-18T19:16:01.564Z,4.40
2023-11-18T19:18:29.166Z,4.40
2023-11-18T19:20:56.276Z,4.50
2023-11-18T19:23:23.345Z,4.40
2023-11-18T19:25:50.169Z,4.50
2023-11-18T19:28:17.308Z,4.50
2023-11-18T19:30:44.799Z,4.50
2023-11-18T19:33:13.017Z,4.50
2023-11-18T19:35:39.850Z,4.50
2023-11-18T19:38:08.120Z,4.50
2023-11-18T19:40:35.732Z,4.50
2023-11-18T19:43:03.436Z,4.50
2023-11-18T19:45:30.222Z,4.50
2023-11-18T19:47:59.976Z,4.50
2023-11-18T19:50:27.679Z,4.40
2023-11-18T19:52:55.190Z,4.40
2023-11-18T19:55:22.504Z,4.40
2023-11-18T19:57:49.273Z,4.40
2023-11-18T20:00:19.387Z,4.40
2023-11-18T20:02:46.823Z,4.40
2023-11-18T20:05:13.971Z,4.40
2023-11-18T20:07:41.087Z,4.50
2023-11-18T20:10:10.040Z,4.50
2023-11-18T20:12:37.271Z,4.40
2023-11-18T20:15:05.805Z,4.40
2023-11-18T20:17:33.462Z,4.40
2023-11-18T20:20:06.733Z,4.40
2023-11-18T20:22:36.563Z,4.40
2023-11-18T20:25:03.937Z,4.40
2023-11-18T20:27:30.688Z,4.40
2023-11-18T20:29:58.560Z,4.50
2023-11-18T20:32:25.379Z,4.40
2023-11-18T20:34:52.258Z,4.50
2023-11-18T20:37:19.003Z,4.50
2023-11-18T20:39:45.848Z,4.50
2023-11-18T20:42:13.386Z,4.50
2023-11-18T20:44:40.558Z,4.50
2023-11-18T20:47:08.710Z,4.50
2023-11-18T20:49:35.493Z,4.50
2023-11-18T20:52:02.381Z,4.50
2023-11-18T20:54:29.310Z,4.50
2023-11-18T20:56:56.402Z,4.50
2023-11-18T20:59:23.360Z,4.50
2023-11-18T21:01:51.559Z,4.50
2023-11-18T21:04:19.039Z,4.50
2023-11-18T21:06:46.044Z,4.50
2023-11-18T21:09:12.861Z,4.60
2023-11-18T21:11:39.746Z,4.60
2023-11-18T21:14:07.406Z,4.60
2023-11-18T21:16:34.286Z,4.60
2023-11-18T21:19:02.434Z,4.60
2023-11-18T21:21:30.077Z,4.60
2023-11-18T21:23:56.974Z,4.60
2023-11-18T21:26:25.790Z,4.60
2023-11-18T21:28:52.739Z,4.70
2023-11-18T21:31:19.558Z,4.70
2023-11-18T21:33:46.481Z,4.70
2023-11-18T21:36:16.119Z,4.80
2023-11-18T21:38:42.892Z,4.80
2023-11-18T21:41:09.821Z,4.80
2023-11-18T21:43:38.480Z,4.80
2023-11-18T21:46:05.486Z,4.80
2023-11-18T21:48:32.370Z,4.80
2023-11-18T21:50:59.197Z,4.80
2023-11-18T21:53:28.832Z,4.80
2023-11-18T21:55:56.490Z,4.90
2023-11-18T21:58:24.715Z,4.90
2023-11-18T22:00:52.274Z,4.90
2023-11-18T22:03:19.398Z,4.90
2023-11-18T22:05:48.399Z,4.90
2023-11-18T22:08:20.331Z,5.00
2023-11-18T22:10:47.476Z,5.00
2023-11-18T22:13:15.427Z,5.00
2023-11-18T22:15:42.418Z,5.00
2023-11-18T22:18:11.925Z,5.00
2023-11-18T22:20:39.249Z,5.10
2023-11-18T22:23:07.276Z,5.10
2023-11-18T22:25:34.133Z,5.10
2023-11-18T22:28:03.742Z,5.10
2023-11-18T22:30:30.559Z,5.10
2023-11-18T22:33:01.010Z,5.10
2023-11-18T22:35:28.537Z,5.10
2023-11-18T22:38:00.295Z,5.10
2023-11-18T22:40:27.781Z,5.10
2023-11-18T22:42:54.840Z,5.10
2023-11-18T22:45:21.772Z,5.10
2023-11-18T22:47:51.567Z,5.10
2023-11-18T22:50:22.346Z,5.10
2023-11-18T22:52:54.382Z,5.10
2023-11-18T22:55:21.445Z,5.10
2023-11-18T22:57:48.717Z,5.00
2023-11-18T23:00:34.959Z,5.10
2023-11-18T23:03:03.209Z,5.10
2023-11-18T23:05:30.509Z,5.10
2023-11-18T23:07:57.806Z,5.10
2023-11-18T23:10:25.987Z,5.10
2023-11-18T23:12:53.815Z,5.10
2023-11-18T23:15:23.008Z,5.10
2023-11-18T23:17:50.641Z,5.10
2023-11-18T23:20:19.162Z,5.10
2023-11-18T23:22:46.464Z,5.10
2023-11-18T23:25:13.287Z,5.20
2023-11-18T23:27:42.156Z,5.20
2023-11-18T23:30:10.928Z,5.20
2023-11-18T23:32:38.274Z,5.20
2023-11-18T23:35:07.140Z,5.20
2023-11-18T23:37:33.969Z,5.20
2023-11-18T23:40:00.846Z,5.20
2023-11-18T23:42:27.610Z,5.20
2023-11-18T23:44:55.078Z,5.30
2023-11-18T23:47:22.065Z,5.30
2023-11-18T23:49:57.347Z,5.30
2023-11-18T23:52:24.546Z,5.30
2023-11-18T23:54:51.418Z,5.40
2023-11-18T23:57:18.872Z,5.40
2023-11-18T23:59:45.663Z,5.50
